createdAt,value
2018-12-08T00:00:35.183Z,97.60
2018-12-08T00:03:03.703Z,97.60
2018-12-08T00:05:31.983Z,97.60
2018-12-08T00:08:00.238Z,97.70
2018-12-08T00:10:28.610Z,97.40
2018-12-08T00:12:56.980Z,97.60
2018-12-08T00:15:25.354Z,97.60
2018-12-08T00:17:54.896Z,97.60
2018-12-08T00:20:23.217Z,97.40
2018-12-08T00:22:51.616Z,97.20
2018-12-08T00:25:19.976Z,97.40
2018-12-08T00:27:48.537Z,97.30
2018-12-08T00:30:28.265Z,97.20
2018-12-08T00:32:56.513Z,97.30
2018-12-08T00:35:24.776Z,97.20
2018-12-08T00:37:53.015Z,97.20
2018-12-08T00:40:21.521Z,97.30
2018-12-08T00:42:49.764Z,97.20
2018-12-08T00:45:18.036Z,97.30
2018-12-08T00:47:46.433Z,97.20
2018-12-08T00:50:14.707Z,97.50
2018-12-08T00:52:43.195Z,97.10
2018-12-08T00:55:11.473Z,97.30
2018-12-08T00:57:39.821Z,97.30
2018-12-08T01:00:08.291Z,97.30
2018-12-08T01:02:36.565Z,97.80
2018-12-08T01:05:05.582Z,98.20
2018-12-08T01:07:33.874Z,98.30
2018-12-08T01:10:02.235Z,98.30
2018-12-08T01:12:30.523Z,98.30
2018-12-08T01:14:59.139Z,98.20
2018-12-08T01:17:27.544Z,98.20
2018-12-08T01:19:55.806Z,98.10
2018-12-08T01:22:24.104Z,98.50
2018-12-08T01:24:52.417Z,98.50
2018-12-08T01:27:20.702Z,98.30
2018-12-08T01:29:48.931Z,98.40
2018-12-08T01:32:17.162Z,98.10
2018-12-08T01:34:45.559Z,97.90
2018-12-08T01:37:13.828Z,97.70
2018-12-08T01:39:42.063Z,97.90
2018-12-08T01:42:10.309Z,97.50
2018-12-08T01:44:38.546Z,97.60
2018-12-08T01:47:06.830Z,97.50
2018-12-08T01:49:35.146Z,97.50
2018-12-08T01:52:03.387Z,97.40
2018-12-08T01:54:31.698Z,97.40
2018-12-08T01:56:59.940Z,97.30
2018-12-08T01:59:28.205Z,97.40
2018-12-08T02:01:56.506Z,97.50
2018-12-08T02:04:24.725Z,97.40
2018-12-08T02:06:52.985Z,97.80
2018-12-08T02:09:21.213Z,97.70
2018-12-08T02:11:49.468Z,97.60
2018-12-08T02:14:17.739Z,97.40
2018-12-08T02:16:46.022Z,97.30
2018-12-08T02:19:14.284Z,97.20
2018-12-08T02:21:42.533Z,97.10
2018-12-08T02:24:17.500Z,97.10
2018-12-08T02:26:45.748Z,96.90
2018-12-08T02:29:14.039Z,97.00
2018-12-08T02:31:42.471Z,97.00
2018-12-08T02:34:10.694Z,97.00
2018-12-08T02:36:38.958Z,96.90
2018-12-08T02:39:07.798Z,96.80
2018-12-08T02:41:36.160Z,96.80
2018-12-08T02:44:04.715Z,96.80
2018-12-08T02:46:32.972Z,96.80
2018-12-08T02:49:01.273Z,96.80
2018-12-08T02:51:29.656Z,96.80
2018-12-08T02:53:57.869Z,96.80
2018-12-08T02:56:26.070Z,96.80
2018-12-08T02:58:54.351Z,96.80
2018-12-08T03:01:22.590Z,96.90
2018-12-08T03:03:51.512Z,96.90
2018-12-08T03:06:20.508Z,96.80
2018-12-08T03:08:48.782Z,97.00
2018-12-08T03:11:17.025Z,97.00
2018-12-08T03:13:45.298Z,96.90
2018-12-08T03:16:13.558Z,96.90
2018-12-08T03:18:41.860Z,96.60
2018-12-08T03:21:10.119Z,96.50
2018-12-08T03:23:38.464Z,96.50
2018-12-08T03:26:06.680Z,96.20
2018-12-08T03:28:34.950Z,96.10
2018-12-08T03:31:03.188Z,96.10
2018-12-08T03:33:31.386Z,95.90
2018-12-08T03:35:59.623Z,95.80
2018-12-08T03:38:27.987Z,95.70
2018-12-08T03:40:56.301Z,96.00
2018-12-08T03:43:24.542Z,96.00
2018-12-08T03:45:52.786Z,96.10
2018-12-08T03:48:21.006Z,96.10
2018-12-08T03:50:49.296Z,96.20
2018-12-08T03:53:17.555Z,96.20
2018-12-08T03:55:45.821Z,96.20
2018-12-08T03:58:14.090Z,96.20
2018-12-08T04:00:42.362Z,96.30
2018-12-08T04:03:10.885Z,96.00
2018-12-08T04:05:39.146Z,96.00
2018-12-08T04:08:07.436Z,95.90
2018-12-08T04:10:35.668Z,95.70
2018-12-08T04:13:04.023Z,95.70
2018-12-08T04:15:32.379Z,95.60
2018-12-08T04:18:00.600Z,95.70
2018-12-08T04:20:28.931Z,95.70
2018-12-08T04:22:57.173Z,95.80
2018-12-08T04:25:25.416Z,95.60
2018-12-08T04:27:53.644Z,95.30
2018-12-08T04:30:21.953Z,95.30
2018-12-08T04:32:50.172Z,95.60
2018-12-08T04:35:18.435Z,95.20
2018-12-08T04:37:46.653Z,95.20
2018-12-08T04:40:15.103Z,95.20
2018-12-08T04:42:43.350Z,95.10
2018-12-08T04:45:11.594Z,95.10
2018-12-08T04:47:39.827Z,95.30
2018-12-08T04:50:08.210Z,95.70
2018-12-08T04:52:36.542Z,95.80
2018-12-08T04:55:05.240Z,95.90
2018-12-08T04:57:33.557Z,95.80
2018-12-08T05:00:01.811Z,95.70
2018-12-08T05:02:30.043Z,95.70
2018-12-08T05:04:58.268Z,95.50
2018-12-08T05:07:26.542Z,95.50
2018-12-08T05:09:54.878Z,95.40
2018-12-08T05:12:23.117Z,95.50
2018-12-08T05:14:51.374Z,95.50
2018-12-08T05:17:19.641Z,95.40
2018-12-08T05:19:47.852Z,95.50
2018-12-08T05:22:16.048Z,95.80
2018-12-08T05:24:44.292Z,96.00
2018-12-08T05:27:12.534Z,96.10
2018-12-08T05:29:40.740Z,96.00
2018-12-08T05:32:08.986Z,96.30
2018-12-08T05:34:37.229Z,96.50
2018-12-08T05:37:05.440Z,96.60
2018-12-08T05:39:33.649Z,96.40
2018-12-08T05:42:01.958Z,96.50
2018-12-08T05:44:30.156Z,96.30
2018-12-08T05:46:58.394Z,96.30
2018-12-08T05:49:26.608Z,96.40
2018-12-08T05:51:54.848Z,96.40
2018-12-08T05:54:23.063Z,96.50
2018-12-08T05:56:51.260Z,96.40
2018-12-08T05:59:19.509Z,96.60
2018-12-08T06:01:47.775Z,96.50
2018-12-08T06:04:16.038Z,96.50
2018-12-08T06:06:44.318Z,96.40
2018-12-08T06:09:12.599Z,96.30
2018-12-08T06:11:40.839Z,96.40
2018-12-08T06:14:09.103Z,96.50
2018-12-08T06:16:37.333Z,96.40
2018-12-08T06:19:05.589Z,96.30
2018-12-08T06:21:36.925Z,96.10
2018-12-08T06:24:05.370Z,96.20
2018-12-08T06:26:38.628Z,95.90
2018-12-08T06:29:06.884Z,95.90
2018-12-08T06:31:35.151Z,95.90
2018-12-08T06:34:03.416Z,95.90
2018-12-08T06:36:31.648Z,96.00
2018-12-08T06:38:59.991Z,95.90
2018-12-08T06:41:28.226Z,95.80
2018-12-08T06:43:56.491Z,95.70
2018-12-08T06:46:24.762Z,95.80
2018-12-08T06:48:52.956Z,96.10
2018-12-08T06:51:21.184Z,96.00
2018-12-08T06:53:49.457Z,95.70
2018-12-08T06:56:17.779Z,96.00
2018-12-08T06:58:46.007Z,95.70
2018-12-08T07:01:14.314Z,95.70
2018-12-08T07:03:42.545Z,95.60
2018-12-08T07:06:10.824Z,95.70
2018-12-08T07:08:39.307Z,95.60
2018-12-08T07:11:07.643Z,95.70
2018-12-08T07:13:35.966Z,95.90
2018-12-08T07:16:04.434Z,96.10
2018-12-08T07:18:32.933Z,96.10
2018-12-08T07:21:01.691Z,96.20
2018-12-08T07:23:30.874Z,96.10
2018-12-08T07:25:59.376Z,96.30
2018-12-08T07:28:27.985Z,96.80
2018-12-08T07:30:56.338Z,96.90
2018-12-08T07:33:24.847Z,97.40
2018-12-08T07:35:53.265Z,97.70
2018-12-08T07:38:21.619Z,97.80
2018-12-08T07:40:50.061Z,98.00
2018-12-08T07:43:18.340Z,98.50
2018-12-08T07:45:47.052Z,98.80
2018-12-08T07:48:15.755Z,99.20
2018-12-08T07:50:44.214Z,99.90
2018-12-08T07:53:12.872Z,99.90
2018-12-08T07:55:41.432Z,99.90
2018-12-08T07:58:09.975Z,99.90
2018-12-08T08:00:38.405Z,99.90
2018-12-08T08:03:07.066Z,99.90
2018-12-08T08:05:35.442Z,99.90
2018-12-08T08:08:03.894Z,99.70
2018-12-08T08:10:32.465Z,99.20
2018-12-08T08:13:00.888Z,99.10
2018-12-08T08:15:29.482Z,98.20
2018-12-08T08:17:57.844Z,98.30
2018-12-08T08:20:26.384Z,98.30
2018-12-08T08:22:55.441Z,97.70
2018-12-08T08:25:24.466Z,97.10
2018-12-08T08:27:53.350Z,97.20
2018-12-08T08:30:23.533Z,97.20
2018-12-08T08:32:52.394Z,97.10
2018-12-08T08:35:21.139Z,97.20
2018-12-08T08:37:50.330Z,96.70
2018-12-08T08:40:19.226Z,97.00
2018-12-08T08:42:47.773Z,96.80
2018-12-08T08:45:16.393Z,97.30
2018-12-08T08:47:44.795Z,97.80
2018-12-08T08:50:13.501Z,97.60
2018-12-08T08:52:42.270Z,97.60
2018-12-08T08:55:10.850Z,97.50
2018-12-08T08:57:39.447Z,97.40
2018-12-08T09:00:09.721Z,97.30
2018-12-08T09:02:38.183Z,97.30
2018-12-08T09:05:07.547Z,97.20
2018-12-08T09:07:36.067Z,97.00
2018-12-08T09:10:07.639Z,96.90
2018-12-08T09:12:36.225Z,96.50
2018-12-08T09:15:05.975Z,96.50
2018-12-08T09:17:34.770Z,96.50
2018-12-08T09:20:03.593Z,96.10
2018-12-08T09:22:32.385Z,96.70
2018-12-08T09:25:01.038Z,96.80
2018-12-08T09:27:29.282Z,96.80
2018-12-08T09:29:57.547Z,96.70
2018-12-08T09:32:25.860Z,96.70
2018-12-08T09:34:54.116Z,96.70
2018-12-08T09:37:22.885Z,96.30
2018-12-08T09:39:51.196Z,96.30
2018-12-08T09:58:03.431Z,98.80
2018-12-08T10:00:31.685Z,99.60
2018-12-08T10:03:05.854Z,99.90
2018-12-08T10:05:34.113Z,99.90
2018-12-08T10:08:02.489Z,99.90
2018-12-08T10:10:30.830Z,99.90
2018-12-08T10:12:59.270Z,99.70
2018-12-08T10:15:27.621Z,99.80
2018-12-08T10:17:55.882Z,99.80
2018-12-08T10:20:24.206Z,99.90
2018-12-08T10:22:52.473Z,99.90
2018-12-08T10:25:20.850Z,99.90
2018-12-08T10:27:49.137Z,99.90
2018-12-08T10:30:17.355Z,99.90
2018-12-08T10:32:45.639Z,99.90
2018-12-08T10:35:13.960Z,99.90
2018-12-08T10:37:42.332Z,99.90
2018-12-08T10:40:11.283Z,99.90
2018-12-08T10:42:39.749Z,99.90
2018-12-08T10:45:08.978Z,99.90
2018-12-08T10:47:37.505Z,99.90
2018-12-08T10:50:08.977Z,99.90
2018-12-08T10:52:37.404Z,99.90
2018-12-08T10:55:06.496Z,99.90
2018-12-08T10:57:34.864Z,99.70
2018-12-08T11:00:03.264Z,99.40
2018-12-08T11:02:34.819Z,99.00
2018-12-08T11:05:03.230Z,98.60
2018-12-08T11:07:31.542Z,99.00
2018-12-08T11:09:59.797Z,98.30
2018-12-08T11:12:28.261Z,98.30
2018-12-08T11:15:00.674Z,97.80
2018-12-08T11:17:26.824Z,97.50
2018-12-08T11:19:56.102Z,97.60
2018-12-08T11:22:24.471Z,97.30
2018-12-08T11:24:52.877Z,96.40
2018-12-08T11:27:21.190Z,96.40
2018-12-08T11:29:49.471Z,96.40
2018-12-08T11:32:17.744Z,95.80
2018-12-08T11:34:46.024Z,95.70
2018-12-08T11:37:14.291Z,95.20
2018-12-08T11:39:42.523Z,94.70
2018-12-08T11:42:10.817Z,94.70
2018-12-08T11:44:39.579Z,94.80
2018-12-08T11:47:07.820Z,94.70
2018-12-08T11:49:49.093Z,94.60
2018-12-08T11:52:17.426Z,94.60
2018-12-08T11:54:45.660Z,94.90
2018-12-08T11:57:14.048Z,94.90
2018-12-08T11:59:42.327Z,95.00
2018-12-08T12:02:16.505Z,95.30
2018-12-08T12:04:40.810Z,95.40
2018-12-08T12:07:09.092Z,95.30
2018-12-08T12:09:37.418Z,95.40
2018-12-08T12:12:05.754Z,95.40
2018-12-08T12:14:43.693Z,95.40
2018-12-08T12:17:11.977Z,95.50
2018-12-08T12:19:40.226Z,95.70
2018-12-08T12:22:09.379Z,95.30
2018-12-08T12:24:37.617Z,95.30
2018-12-08T12:27:05.974Z,95.10
2018-12-08T12:29:34.235Z,95.30
2018-12-08T12:32:02.497Z,95.70
2018-12-08T12:34:30.898Z,95.60
2018-12-08T12:36:59.265Z,95.80
2018-12-08T12:39:27.540Z,95.70
2018-12-08T12:41:55.743Z,96.00
2018-12-08T12:44:23.987Z,96.30
2018-12-08T12:46:52.242Z,96.40
2018-12-08T12:49:20.532Z,96.20
2018-12-08T12:51:49.023Z,96.40
2018-12-08T12:54:17.830Z,96.40
2018-12-08T12:56:46.238Z,96.80
2018-12-08T12:59:14.619Z,97.00
2018-12-08T13:01:42.879Z,97.00
2018-12-08T13:04:11.186Z,97.10
2018-12-08T13:06:39.421Z,97.10
2018-12-08T13:09:07.695Z,96.70
2018-12-08T13:11:36.054Z,96.40
2018-12-08T13:14:04.619Z,96.30
2018-12-08T13:16:32.951Z,95.90
2018-12-08T13:19:01.251Z,95.60
2018-12-08T13:21:29.508Z,95.40
2018-12-08T13:23:57.764Z,95.30
2018-12-08T13:26:26.056Z,95.20
2018-12-08T13:28:54.309Z,95.20
2018-12-08T13:31:29.227Z,95.20
2018-12-08T13:33:57.494Z,95.40
2018-12-08T13:36:25.738Z,95.70
2018-12-08T13:38:54.021Z,95.50
2018-12-08T13:41:22.323Z,95.10
2018-12-08T13:43:54.752Z,95.30
2018-12-08T13:46:23.243Z,95.20
2018-12-08T13:48:51.581Z,95.00
2018-12-08T13:51:20.127Z,94.50
2018-12-08T13:53:48.387Z,94.20
2018-12-08T13:56:16.611Z,94.00
2018-12-08T13:58:44.896Z,93.90
2018-12-08T14:01:13.195Z,93.90
2018-12-08T14:03:41.512Z,94.00
2018-12-08T14:06:09.794Z,94.00
2018-12-08T14:08:38.164Z,94.00
2018-12-08T14:11:06.641Z,94.00
2018-12-08T14:13:34.972Z,94.00
2018-12-08T14:16:03.583Z,94.00
2018-12-08T14:18:32.324Z,93.90
2018-12-08T14:21:03.069Z,93.80
2018-12-08T14:23:31.535Z,93.90
2018-12-08T14:25:59.844Z,94.00
2018-12-08T14:28:28.490Z,94.10
2018-12-08T14:30:56.849Z,94.00
2018-12-08T14:33:25.376Z,93.90
2018-12-08T14:35:54.495Z,93.80
2018-12-08T14:38:22.815Z,93.80
2018-12-08T14:40:51.171Z,94.00
2018-12-08T14:43:19.687Z,94.30
2018-12-08T14:45:48.127Z,94.00
2018-12-08T14:48:16.630Z,94.10
2018-12-08T14:50:45.329Z,94.20
2018-12-08T14:53:14.096Z,94.20
2018-12-08T14:55:49.783Z,94.20
2018-12-08T14:58:18.284Z,94.20
2018-12-08T15:00:47.210Z,94.20
2018-12-08T15:03:15.579Z,94.30
2018-12-08T15:05:44.067Z,94.00
2018-12-08T15:08:12.348Z,93.90
2018-12-08T15:10:40.670Z,93.80
2018-12-08T15:13:08.990Z,94.20
2018-12-08T15:15:37.293Z,94.60
2018-12-08T15:18:05.571Z,94.80
2018-12-08T15:20:33.841Z,95.10
2018-12-08T15:23:04.333Z,95.30
2018-12-08T15:25:32.660Z,95.40
2018-12-08T15:28:01.020Z,95.40
2018-12-08T15:30:29.486Z,95.40
2018-12-08T15:32:57.906Z,95.30
2018-12-08T15:35:32.730Z,95.10
2018-12-08T15:38:01.228Z,94.90
2018-12-08T15:40:29.504Z,94.90
2018-12-08T15:42:57.992Z,94.80
2018-12-08T15:45:26.999Z,95.00
2018-12-08T15:47:55.493Z,94.70
2018-12-08T15:50:23.874Z,94.60
2018-12-08T15:52:52.214Z,94.60
2018-12-08T15:55:20.580Z,94.30
2018-12-08T15:57:48.997Z,94.20
2018-12-08T16:00:17.409Z,94.20
2018-12-08T16:02:45.673Z,94.20
2018-12-08T16:05:14.229Z,94.10
2018-12-08T16:07:42.565Z,94.30
2018-12-08T16:12:54.042Z,94.30
2018-12-08T16:15:22.718Z,94.30
2018-12-08T16:17:50.960Z,94.40
2018-12-08T16:20:19.216Z,94.40
2018-12-08T16:22:47.565Z,94.20
2018-12-08T16:25:15.921Z,94.20
2018-12-08T16:27:44.322Z,94.20
2018-12-08T16:30:12.789Z,94.30
2018-12-08T16:32:41.242Z,94.20
2018-12-08T16:35:11.008Z,94.10
2018-12-08T16:37:39.624Z,94.20
2018-12-08T16:40:08.351Z,94.40
2018-12-08T16:42:36.789Z,94.50
2018-12-08T16:45:06.989Z,94.70
2018-12-08T16:47:35.314Z,95.00
2018-12-08T16:50:04.187Z,95.30
2018-12-08T16:52:32.493Z,95.50
2018-12-08T16:55:00.945Z,95.70
2018-12-08T16:57:29.324Z,95.80
2018-12-08T16:59:57.778Z,96.10
2018-12-08T17:02:26.088Z,96.10
2018-12-08T17:04:54.365Z,96.00
2018-12-08T17:07:22.756Z,96.20
2018-12-08T17:09:51.274Z,96.30
2018-12-08T17:12:19.535Z,96.40
2018-12-08T17:14:47.882Z,96.50
2018-12-08T17:17:16.224Z,96.70
2018-12-08T17:19:44.549Z,96.80
2018-12-08T17:22:13.012Z,96.90
2018-12-08T17:24:41.432Z,97.00
2018-12-08T17:27:09.791Z,97.00
2018-12-08T17:29:38.091Z,97.10
2018-12-08T17:32:06.365Z,97.60
2018-12-08T17:34:34.765Z,98.20
2018-12-08T17:37:03.119Z,98.30
2018-12-08T17:39:31.532Z,98.50
2018-12-08T17:41:59.870Z,98.70
2018-12-08T17:44:28.245Z,98.80
2018-12-08T17:46:56.545Z,98.70
2018-12-08T17:49:25.098Z,98.80
2018-12-08T17:51:53.342Z,98.70
2018-12-08T17:54:21.625Z,98.60
2018-12-08T17:56:49.973Z,98.30
2018-12-08T17:59:18.202Z,98.20
2018-12-08T18:01:46.511Z,98.10
2018-12-08T18:04:14.916Z,98.00
2018-12-08T18:06:43.266Z,98.00
2018-12-08T18:09:11.679Z,97.90
2018-12-08T18:11:40.052Z,97.90
2018-12-08T18:14:08.299Z,97.90
2018-12-08T18:16:36.580Z,98.00
2018-12-08T18:19:04.927Z,98.10
2018-12-08T18:21:33.231Z,98.10
2018-12-08T18:24:01.598Z,98.30
2018-12-08T18:26:29.907Z,98.40
2018-12-08T18:28:58.163Z,98.50
2018-12-08T18:31:26.397Z,98.50
2018-12-08T18:33:54.684Z,98.90
2018-12-08T18:36:22.996Z,99.20
2018-12-08T18:38:51.243Z,99.20
2018-12-08T18:41:19.698Z,99.70
2018-12-08T18:43:48.027Z,99.90
2018-12-08T18:46:16.474Z,99.90
2018-12-08T18:48:44.719Z,99.90
2018-12-08T18:51:12.974Z,99.90
2018-12-08T18:53:41.210Z,99.90
2018-12-08T18:56:09.466Z,99.90
2018-12-08T18:58:37.748Z,99.90
2018-12-08T19:01:06.077Z,99.90
2018-12-08T19:03:34.336Z,99.90
2018-12-08T19:06:09.094Z,99.90
2018-12-08T19:08:37.383Z,99.90
2018-12-08T19:11:05.658Z,99.90
2018-12-08T19:13:34.041Z,99.90
2018-12-08T19:16:02.361Z,99.90
2018-12-08T19:18:30.703Z,99.90
2018-12-08T19:20:59.071Z,99.90
2018-12-08T19:23:27.336Z,99.90
2018-12-08T19:25:55.659Z,99.90
2018-12-08T19:28:23.885Z,99.90
2018-12-08T19:30:52.235Z,99.90
2018-12-08T19:33:20.570Z,99.90
2018-12-08T19:35:48.795Z,99.90
2018-12-08T19:38:17.576Z,99.90
2018-12-08T19:40:45.815Z,99.90
2018-12-08T19:43:14.168Z,99.90
2018-12-08T19:45:42.377Z,99.90
2018-12-08T19:48:10.612Z,99.90
2018-12-08T19:50:38.869Z,99.90
2018-12-08T19:53:07.103Z,99.90
2018-12-08T19:55:35.377Z,99.90
2018-12-08T19:58:03.632Z,99.90
2018-12-08T20:00:31.933Z,99.90
2018-12-08T20:03:00.292Z,99.90
2018-12-08T20:05:28.538Z,99.90
2018-12-08T20:07:56.816Z,99.90
2018-12-08T20:10:25.113Z,99.90
2018-12-08T20:12:53.447Z,99.90
2018-12-08T20:15:21.773Z,99.90
2018-12-08T20:17:50.025Z,99.90
2018-12-08T20:20:18.396Z,99.90
2018-12-08T20:22:46.660Z,99.90
2018-12-08T20:25:14.889Z,99.90
2018-12-08T20:27:43.192Z,99.90
2018-12-08T20:30:11.670Z,99.90
2018-12-08T20:32:40.050Z,99.90
2018-12-08T20:35:08.338Z,99.90
2018-12-08T20:37:36.599Z,99.90
2018-12-08T20:40:05.495Z,99.90
2018-12-08T20:42:33.761Z,99.90
2018-12-08T20:45:02.015Z,99.90
2018-12-08T20:47:30.316Z,99.90
2018-12-08T20:49:58.662Z,99.90
2018-12-08T20:52:26.930Z,99.90
2018-12-08T20:54:55.558Z,99.90
2018-12-08T20:57:24.215Z,99.90
2018-12-08T20:59:52.506Z,99.90
2018-12-08T21:02:20.760Z,99.90
2018-12-08T21:04:50.489Z,99.90
2018-12-08T21:10:08.619Z,99.90
2018-12-08T21:15:22.257Z,99.90
2018-12-08T21:17:51.071Z,99.90
2018-12-08T21:20:20.164Z,99.90
2018-12-08T21:22:50.474Z,99.90
2018-12-08T21:25:18.805Z,99.90
2018-12-08T21:27:47.066Z,99.90
2018-12-08T21:30:15.330Z,99.90
2018-12-08T21:32:43.685Z,99.90
2018-12-08T21:35:11.938Z,99.90
2018-12-08T21:37:40.221Z,99.90
2018-12-08T21:40:16.165Z,99.90
2018-12-08T21:42:44.476Z,99.90
2018-12-08T21:45:12.890Z,99.90
2018-12-08T21:47:41.199Z,99.90
2018-12-08T21:50:09.661Z,99.90
2018-12-08T21:52:37.977Z,99.90
2018-12-08T21:55:06.428Z,99.90
2018-12-08T21:57:34.972Z,99.90
2018-12-08T22:00:03.324Z,99.90
2018-12-08T22:02:31.654Z,99.90
2018-12-08T22:05:03.619Z,99.90
2018-12-08T22:07:31.905Z,99.90
2018-12-08T22:10:00.140Z,99.90
2018-12-08T22:12:28.465Z,99.90
2018-12-08T22:14:59.017Z,99.90
2018-12-08T22:17:27.886Z,99.90
2018-12-08T22:19:56.294Z,99.90
2018-12-08T22:22:24.598Z,99.90
2018-12-08T22:24:52.904Z,99.90
2018-12-08T22:27:21.364Z,99.90
2018-12-08T22:29:49.741Z,99.90
2018-12-08T22:32:18.202Z,99.90
2018-12-08T22:34:46.472Z,99.90
2018-12-08T22:37:14.840Z,99.90
2018-12-08T22:39:43.068Z,99.90
2018-12-08T22:42:11.477Z,99.90
2018-12-08T22:44:39.830Z,99.90
2018-12-08T22:47:08.135Z,99.90
2018-12-08T22:49:36.413Z,99.90
2018-12-08T22:52:04.802Z,99.90
2018-12-08T22:54:33.030Z,99.90
2018-12-08T22:57:01.300Z,99.90
2018-12-08T22:59:29.602Z,99.90
2018-12-08T23:01:58.054Z,99.90
2018-12-08T23:04:26.286Z,99.90
2018-12-08T23:07:02.050Z,99.70
2018-12-08T23:09:30.415Z,99.50
2018-12-08T23:11:58.785Z,99.40
2018-12-08T23:14:27.173Z,99.50
2018-12-08T23:16:55.515Z,99.30
2018-12-08T23:19:23.878Z,99.30
2018-12-08T23:21:52.131Z,99.90
2018-12-08T23:24:20.425Z,99.90
2018-12-08T23:26:48.709Z,99.90
2018-12-08T23:29:16.965Z,99.90
2018-12-08T23:31:45.249Z,99.90
2018-12-08T23:34:13.600Z,99.90
2018-12-08T23:36:41.968Z,99.90
2018-12-08T23:39:10.412Z,99.90
2018-12-08T23:41:38.806Z,99.90
2018-12-08T23:44:07.160Z,99.90
2018-12-08T23:46:35.444Z,99.90
2018-12-08T23:49:10.919Z,99.90
2018-12-08T23:51:34.195Z,99.80
2018-12-08T23:54:02.470Z,99.30
2018-12-08T23:56:30.752Z,99.00
2018-12-08T23:58:59.027Z,98.50
